sensor_id;sensor_type;location;lat;lon;timestamp;P1;durP1;ratioP1;P2;durP2;ratioP2
51272;SDS011;37345;59.828;30.328;2022-09-28T00:00:27;29.88;;;12.93;;
51272;SDS011;37345;59.828;30.328;2022-09-28T00:02:53;15.23;;;8.47;;
51272;SDS011;37345;59.828;30.328;2022-09-28T00:05:22;24.95;;;11.10;;
51272;SDS011;37345;59.828;30.328;2022-09-28T00:07:53;27.00;;;11.67;;
51272;SDS011;37345;59.828;30.328;2022-09-28T00:10:21;17.67;;;8.73;;
51272;SDS011;37345;59.828;30.328;2022-09-28T00:12:50;12.32;;;7.53;;
51272;SDS011;37345;59.828;30.328;2022-09-28T00:15:16;11.00;;;7.45;;
51272;SDS011;37345;59.828;30.328;2022-09-28T00:17:42;12.20;;;7.95;;
51272;SDS011;37345;59.828;30.328;2022-09-28T00:20:09;11.13;;;7.22;;
51272;SDS011;37345;59.828;30.328;2022-09-28T00:22:36;11.38;;;7.38;;
51272;SDS011;37345;59.828;30.328;2022-09-28T00:25:02;12.35;;;7.22;;
51272;SDS011;37345;59.828;30.328;2022-09-28T00:27:29;14.00;;;7.45;;
51272;SDS011;37345;59.828;30.328;2022-09-28T00:29:54;10.57;;;7.18;;
51272;SDS011;37345;59.828;30.328;2022-09-28T00:32:21;12.73;;;7.68;;
51272;SDS011;37345;59.828;30.328;2022-09-28T00:34:49;13.00;;;7.10;;
51272;SDS011;37345;59.828;30.328;2022-09-28T00:37:16;11.63;;;7.32;;
51272;SDS011;37345;59.828;30.328;2022-09-28T00:39:43;11.90;;;7.80;;
51272;SDS011;37345;59.828;30.328;2022-09-28T00:44:47;10.13;;;7.05;;
51272;SDS011;37345;59.828;30.328;2022-09-28T00:47:19;12.55;;;7.43;;
51272;SDS011;37345;59.828;30.328;2022-09-28T00:55:27;17.75;;;7.68;;
51272;SDS011;37345;59.828;30.328;2022-09-28T00:58:11;31.60;;;12.85;;
51272;SDS011;37345;59.828;30.328;2022-09-28T01:00:42;21.33;;;10.48;;
51272;SDS011;37345;59.828;30.328;2022-09-28T01:03:08;10.97;;;6.70;;
51272;SDS011;37345;59.828;30.328;2022-09-28T01:05:34;12.90;;;7.47;;
51272;SDS011;37345;59.828;30.328;2022-09-28T01:08:02;11.30;;;6.68;;
51272;SDS011;37345;59.828;30.328;2022-09-28T01:10:29;10.82;;;6.60;;
51272;SDS011;37345;59.828;30.328;2022-09-28T01:12:56;13.73;;;7.77;;
51272;SDS011;37345;59.828;30.328;2022-09-28T01:15:23;42.45;;;15.98;;
51272;SDS011;37345;59.828;30.328;2022-09-28T01:25:44;48.47;;;21.70;;
51272;SDS011;37345;59.828;30.328;2022-09-28T01:28:28;54.78;;;22.85;;
51272;SDS011;37345;59.828;30.328;2022-09-28T01:31:00;60.57;;;24.93;;
51272;SDS011;37345;59.828;30.328;2022-09-28T01:33:30;55.45;;;22.95;;
51272;SDS011;37345;59.828;30.328;2022-09-28T01:36:04;53.63;;;22.43;;
51272;SDS011;37345;59.828;30.328;2022-09-28T01:38:47;49.50;;;20.77;;
51272;SDS011;37345;59.828;30.328;2022-09-28T01:41:45;36.45;;;16.05;;
51272;SDS011;37345;59.828;30.328;2022-09-28T01:44:15;23.85;;;11.63;;
51272;SDS011;37345;59.828;30.328;2022-09-28T01:46:45;27.25;;;13.20;;
51272;SDS011;37345;59.828;30.328;2022-09-28T01:49:17;19.05;;;10.63;;
51272;SDS011;37345;59.828;30.328;2022-09-28T01:51:50;18.77;;;10.17;;
51272;SDS011;37345;59.828;30.328;2022-09-28T01:54:42;15.27;;;9.75;;
51272;SDS011;37345;59.828;30.328;2022-09-28T01:59:54;14.10;;;8.98;;
51272;SDS011;37345;59.828;30.328;2022-09-28T02:02:36;13.50;;;9.35;;
51272;SDS011;37345;59.828;30.328;2022-09-28T02:05:13;16.87;;;9.13;;
51272;SDS011;37345;59.828;30.328;2022-09-28T02:07:42;13.65;;;9.13;;
51272;SDS011;37345;59.828;30.328;2022-09-28T02:10:21;15.38;;;10.07;;
51272;SDS011;37345;59.828;30.328;2022-09-28T02:12:51;16.30;;;10.55;;
51272;SDS011;37345;59.828;30.328;2022-09-28T02:15:22;14.75;;;10.23;;
51272;SDS011;37345;59.828;30.328;2022-09-28T02:17:54;14.50;;;10.73;;
51272;SDS011;37345;59.828;30.328;2022-09-28T02:20:20;19.30;;;11.30;;
51272;SDS011;37345;59.828;30.328;2022-09-28T02:22:48;16.40;;;11.95;;
51272;SDS011;37345;59.828;30.328;2022-09-28T02:28:05;21.15;;;12.80;;
51272;SDS011;37345;59.828;30.328;2022-09-28T02:30:34;19.00;;;12.20;;
51272;SDS011;37345;59.828;30.328;2022-09-28T02:33:23;17.33;;;11.35;;
51272;SDS011;37345;59.828;30.328;2022-09-28T02:35:56;19.80;;;10.50;;
51272;SDS011;37345;59.828;30.328;2022-09-28T02:38:23;14.93;;;10.90;;
51272;SDS011;37345;59.828;30.328;2022-09-28T02:41:03;13.18;;;8.65;;
51272;SDS011;37345;59.828;30.328;2022-09-28T02:57:16;11.48;;;6.85;;
51272;SDS011;37345;59.828;30.328;2022-09-28T02:59:49;13.27;;;6.57;;
51272;SDS011;37345;59.828;30.328;2022-09-28T03:03:11;10.60;;;5.80;;
51272;SDS011;37345;59.828;30.328;2022-09-28T03:07:54;9.02;;;5.70;;
51272;SDS011;37345;59.828;30.328;2022-09-28T03:13:12;9.23;;;5.88;;
51272;SDS011;37345;59.828;30.328;2022-09-28T03:15:40;8.43;;;6.00;;
51272;SDS011;37345;59.828;30.328;2022-09-28T03:18:06;8.73;;;5.97;;
51272;SDS011;37345;59.828;30.328;2022-09-28T03:20:32;9.10;;;6.03;;
51272;SDS011;37345;59.828;30.328;2022-09-28T03:22:58;7.70;;;5.43;;
51272;SDS011;37345;59.828;30.328;2022-09-28T03:25:25;8.53;;;6.00;;
51272;SDS011;37345;59.828;30.328;2022-09-28T03:27:51;10.43;;;5.60;;
51272;SDS011;37345;59.828;30.328;2022-09-28T03:30:17;7.45;;;5.50;;
51272;SDS011;37345;59.828;30.328;2022-09-28T03:32:42;7.70;;;5.50;;
51272;SDS011;37345;59.828;30.328;2022-09-28T03:35:08;11.07;;;5.93;;
51272;SDS011;37345;59.828;30.328;2022-09-28T03:37:35;17.52;;;9.40;;
51272;SDS011;37345;59.828;30.328;2022-09-28T03:40:01;10.20;;;5.63;;
51272;SDS011;37345;59.828;30.328;2022-09-28T03:42:28;10.10;;;5.83;;
51272;SDS011;37345;59.828;30.328;2022-09-28T03:44:53;10.73;;;5.77;;
51272;SDS011;37345;59.828;30.328;2022-09-28T03:47:19;9.55;;;5.75;;
51272;SDS011;37345;59.828;30.328;2022-09-28T03:49:45;14.43;;;6.70;;
51272;SDS011;37345;59.828;30.328;2022-09-28T03:52:11;9.95;;;5.95;;
51272;SDS011;37345;59.828;30.328;2022-09-28T03:54:38;9.00;;;5.78;;
51272;SDS011;37345;59.828;30.328;2022-09-28T03:57:04;12.25;;;6.65;;
51272;SDS011;37345;59.828;30.328;2022-09-28T03:59:32;15.80;;;7.17;;
51272;SDS011;37345;59.828;30.328;2022-09-28T04:02:01;17.73;;;7.85;;
51272;SDS011;37345;59.828;30.328;2022-09-28T04:04:28;27.83;;;9.77;;
51272;SDS011;37345;59.828;30.328;2022-09-28T04:06:54;26.90;;;10.43;;
51272;SDS011;37345;59.828;30.328;2022-09-28T04:09:20;28.80;;;11.25;;
51272;SDS011;37345;59.828;30.328;2022-09-28T04:11:46;28.08;;;11.45;;
51272;SDS011;37345;59.828;30.328;2022-09-28T04:14:12;30.63;;;11.88;;
51272;SDS011;37345;59.828;30.328;2022-09-28T04:16:37;32.08;;;11.85;;
51272;SDS011;37345;59.828;30.328;2022-09-28T04:19:03;29.45;;;11.80;;
51272;SDS011;37345;59.828;30.328;2022-09-28T04:21:29;27.77;;;11.80;;
51272;SDS011;37345;59.828;30.328;2022-09-28T04:23:55;29.50;;;11.10;;
51272;SDS011;37345;59.828;30.328;2022-09-28T04:26:22;24.55;;;10.55;;
51272;SDS011;37345;59.828;30.328;2022-09-28T04:28:49;22.05;;;10.07;;
51272;SDS011;37345;59.828;30.328;2022-09-28T04:31:38;23.13;;;9.82;;
51272;SDS011;37345;59.828;30.328;2022-09-28T04:34:25;18.33;;;10.07;;
51272;SDS011;37345;59.828;30.328;2022-09-28T04:36:51;21.57;;;9.70;;
51272;SDS011;37345;59.828;30.328;2022-09-28T04:39:17;24.10;;;10.03;;
51272;SDS011;37345;59.828;30.328;2022-09-28T04:41:45;24.33;;;9.93;;
51272;SDS011;37345;59.828;30.328;2022-09-28T04:44:12;19.42;;;9.40;;
51272;SDS011;37345;59.828;30.328;2022-09-28T04:46:38;20.77;;;9.40;;
51272;SDS011;37345;59.828;30.328;2022-09-28T04:49:03;19.40;;;9.93;;
51272;SDS011;37345;59.828;30.328;2022-09-28T04:51:30;18.90;;;8.60;;
51272;SDS011;37345;59.828;30.328;2022-09-28T04:53:56;19.83;;;9.18;;
51272;SDS011;37345;59.828;30.328;2022-09-28T04:56:23;18.10;;;8.23;;
51272;SDS011;37345;59.828;30.328;2022-09-28T04:58:48;20.15;;;8.25;;
51272;SDS011;37345;59.828;30.328;2022-09-28T05:01:15;18.40;;;8.10;;
51272;SDS011;37345;59.828;30.328;2022-09-28T05:03:42;17.60;;;7.97;;
51272;SDS011;37345;59.828;30.328;2022-09-28T05:06:08;15.73;;;7.37;;
51272;SDS011;37345;59.828;30.328;2022-09-28T05:08:34;15.07;;;7.15;;
51272;SDS011;37345;59.828;30.328;2022-09-28T05:11:04;14.70;;;6.73;;
51272;SDS011;37345;59.828;30.328;2022-09-28T05:13:31;12.07;;;6.43;;
51272;SDS011;37345;59.828;30.328;2022-09-28T05:15:59;13.18;;;5.63;;
51272;SDS011;37345;59.828;30.328;2022-09-28T05:18:26;13.87;;;6.13;;
51272;SDS011;37345;59.828;30.328;2022-09-28T05:20:52;14.18;;;5.93;;
51272;SDS011;37345;59.828;30.328;2022-09-28T05:23:18;12.65;;;5.63;;
51272;SDS011;37345;59.828;30.328;2022-09-28T05:25:44;17.73;;;5.85;;
51272;SDS011;37345;59.828;30.328;2022-09-28T05:28:10;15.93;;;5.43;;
51272;SDS011;37345;59.828;30.328;2022-09-28T05:30:37;12.87;;;6.27;;
51272;SDS011;37345;59.828;30.328;2022-09-28T05:33:03;17.63;;;5.57;;
51272;SDS011;37345;59.828;30.328;2022-09-28T05:35:30;10.82;;;5.30;;
51272;SDS011;37345;59.828;30.328;2022-09-28T05:37:57;11.87;;;4.87;;
51272;SDS011;37345;59.828;30.328;2022-09-28T05:40:27;10.55;;;4.78;;
51272;SDS011;37345;59.828;30.328;2022-09-28T05:42:57;11.77;;;5.72;;
51272;SDS011;37345;59.828;30.328;2022-09-28T05:45:23;13.90;;;6.80;;
51272;SDS011;37345;59.828;30.328;2022-09-28T05:47:49;15.80;;;7.68;;
51272;SDS011;37345;59.828;30.328;2022-09-28T05:50:15;16.23;;;7.10;;
51272;SDS011;37345;59.828;30.328;2022-09-28T05:52:41;15.85;;;8.05;;
51272;SDS011;37345;59.828;30.328;2022-09-28T05:55:08;15.95;;;7.97;;
51272;SDS011;37345;59.828;30.328;2022-09-28T05:57:35;16.70;;;8.88;;
51272;SDS011;37345;59.828;30.328;2022-09-28T06:00:02;15.77;;;8.13;;
51272;SDS011;37345;59.828;30.328;2022-09-28T06:02:29;20.25;;;9.35;;
51272;SDS011;37345;59.828;30.328;2022-09-28T06:04:55;24.65;;;11.10;;
51272;SDS011;37345;59.828;30.328;2022-09-28T06:07:20;28.13;;;12.52;;
51272;SDS011;37345;59.828;30.328;2022-09-28T06:09:47;27.20;;;11.77;;
51272;SDS011;37345;59.828;30.328;2022-09-28T06:12:13;24.13;;;12.82;;
51272;SDS011;37345;59.828;30.328;2022-09-28T06:14:40;24.50;;;12.80;;
51272;SDS011;37345;59.828;30.328;2022-09-28T06:17:06;29.40;;;13.15;;
51272;SDS011;37345;59.828;30.328;2022-09-28T06:19:32;25.10;;;12.50;;
51272;SDS011;37345;59.828;30.328;2022-09-28T06:21:58;25.87;;;12.93;;
51272;SDS011;37345;59.828;30.328;2022-09-28T06:24:26;26.50;;;12.88;;
51272;SDS011;37345;59.828;30.328;2022-09-28T06:26:52;24.27;;;12.18;;
51272;SDS011;37345;59.828;30.328;2022-09-28T06:29:18;23.80;;;11.73;;
51272;SDS011;37345;59.828;30.328;2022-09-28T06:31:44;25.07;;;12.37;;
51272;SDS011;37345;59.828;30.328;2022-09-28T06:34:11;24.27;;;12.15;;
51272;SDS011;37345;59.828;30.328;2022-09-28T06:36:40;23.17;;;11.35;;
51272;SDS011;37345;59.828;30.328;2022-09-28T06:39:06;20.05;;;11.25;;
51272;SDS011;37345;59.828;30.328;2022-09-28T06:41:31;22.45;;;12.30;;
51272;SDS011;37345;59.828;30.328;2022-09-28T06:43:57;18.90;;;10.35;;
51272;SDS011;37345;59.828;30.328;2022-09-28T06:46:23;23.63;;;10.63;;
51272;SDS011;37345;59.828;30.328;2022-09-28T06:48:49;20.57;;;10.33;;
51272;SDS011;37345;59.828;30.328;2022-09-28T06:51:16;20.30;;;10.43;;
51272;SDS011;37345;59.828;30.328;2022-09-28T06:53:42;20.15;;;10.73;;
51272;SDS011;37345;59.828;30.328;2022-09-28T06:56:08;18.45;;;9.68;;
51272;SDS011;37345;59.828;30.328;2022-09-28T06:58:35;20.65;;;10.23;;
51272;SDS011;37345;59.828;30.328;2022-09-28T07:01:01;21.42;;;10.07;;
51272;SDS011;37345;59.828;30.328;2022-09-28T07:03:27;21.52;;;10.70;;
51272;SDS011;37345;59.828;30.328;2022-09-28T07:05:54;21.30;;;10.35;;
51272;SDS011;37345;59.828;30.328;2022-09-28T07:08:21;24.23;;;11.80;;
51272;SDS011;37345;59.828;30.328;2022-09-28T07:10:49;20.55;;;10.60;;
51272;SDS011;37345;59.828;30.328;2022-09-28T07:13:23;24.60;;;11.43;;
51272;SDS011;37345;59.828;30.328;2022-09-28T07:15:57;19.52;;;10.23;;
51272;SDS011;37345;59.828;30.328;2022-09-28T07:18:25;19.73;;;9.63;;
51272;SDS011;37345;59.828;30.328;2022-09-28T07:20:56;19.35;;;8.93;;
51272;SDS011;37345;59.828;30.328;2022-09-28T07:23:23;18.65;;;9.20;;
51272;SDS011;37345;59.828;30.328;2022-09-28T07:25:51;17.80;;;8.35;;
51272;SDS011;37345;59.828;30.328;2022-09-28T07:28:17;15.00;;;8.50;;
51272;SDS011;37345;59.828;30.328;2022-09-28T07:30:44;14.40;;;7.43;;
51272;SDS011;37345;59.828;30.328;2022-09-28T07:33:11;17.90;;;7.07;;
51272;SDS011;37345;59.828;30.328;2022-09-28T07:35:38;10.90;;;5.80;;
51272;SDS011;37345;59.828;30.328;2022-09-28T07:38:06;10.10;;;5.18;;
51272;SDS011;37345;59.828;30.328;2022-09-28T07:40:33;10.25;;;5.03;;
51272;SDS011;37345;59.828;30.328;2022-09-28T07:43:18;11.80;;;5.60;;
51272;SDS011;37345;59.828;30.328;2022-09-28T07:45:48;10.38;;;4.43;;
51272;SDS011;37345;59.828;30.328;2022-09-28T07:48:18;8.63;;;4.10;;
51272;SDS011;37345;59.828;30.328;2022-09-28T07:50:51;6.43;;;3.92;;
51272;SDS011;37345;59.828;30.328;2022-09-28T07:53:22;6.68;;;4.00;;
51272;SDS011;37345;59.828;30.328;2022-09-28T07:55:56;7.05;;;3.60;;
51272;SDS011;37345;59.828;30.328;2022-09-28T07:58:31;6.03;;;3.20;;
51272;SDS011;37345;59.828;30.328;2022-09-28T08:01:08;4.75;;;3.20;;
51272;SDS011;37345;59.828;30.328;2022-09-28T08:03:35;5.85;;;3.65;;
51272;SDS011;37345;59.828;30.328;2022-09-28T08:06:03;7.00;;;3.63;;
51272;SDS011;37345;59.828;30.328;2022-09-28T08:08:34;6.03;;;3.47;;
51272;SDS011;37345;59.828;30.328;2022-09-28T08:11:00;6.63;;;3.90;;
51272;SDS011;37345;59.828;30.328;2022-09-28T08:13:27;5.05;;;2.92;;
51272;SDS011;37345;59.828;30.328;2022-09-28T08:15:59;4.82;;;2.97;;
51272;SDS011;37345;59.828;30.328;2022-09-28T08:18:25;4.10;;;2.85;;
51272;SDS011;37345;59.828;30.328;2022-09-28T08:20:51;4.97;;;3.30;;
51272;SDS011;37345;59.828;30.328;2022-09-28T08:23:36;4.22;;;2.78;;
51272;SDS011;37345;59.828;30.328;2022-09-28T08:26:02;4.03;;;3.03;;
51272;SDS011;37345;59.828;30.328;2022-09-28T08:28:28;6.53;;;3.95;;
51272;SDS011;37345;59.828;30.328;2022-09-28T08:30:57;5.73;;;3.60;;
51272;SDS011;37345;59.828;30.328;2022-09-28T08:33:27;7.05;;;4.50;;
51272;SDS011;37345;59.828;30.328;2022-09-28T08:35:54;6.23;;;4.17;;
51272;SDS011;37345;59.828;30.328;2022-09-28T08:38:22;7.07;;;4.28;;
51272;SDS011;37345;59.828;30.328;2022-09-28T08:43:23;6.82;;;3.92;;
51272;SDS011;37345;59.828;30.328;2022-09-28T08:45:55;7.70;;;4.38;;
51272;SDS011;37345;59.828;30.328;2022-09-28T08:48:29;7.80;;;4.57;;
51272;SDS011;37345;59.828;30.328;2022-09-28T08:51:16;5.47;;;3.88;;
51272;SDS011;37345;59.828;30.328;2022-09-28T08:54:00;4.70;;;3.73;;
51272;SDS011;37345;59.828;30.328;2022-09-28T08:56:40;4.18;;;3.28;;
51272;SDS011;37345;59.828;30.328;2022-09-28T08:59:15;5.53;;;3.42;;
51272;SDS011;37345;59.828;30.328;2022-09-28T09:01:46;2.97;;;2.10;;
51272;SDS011;37345;59.828;30.328;2022-09-28T09:04:13;4.00;;;2.00;;
51272;SDS011;37345;59.828;30.328;2022-09-28T09:06:44;3.47;;;2.03;;
51272;SDS011;37345;59.828;30.328;2022-09-28T09:09:20;2.65;;;1.90;;
51272;SDS011;37345;59.828;30.328;2022-09-28T09:11:52;2.97;;;2.15;;
51272;SDS011;37345;59.828;30.328;2022-09-28T09:22:15;1.35;;;1.25;;
51272;SDS011;37345;59.828;30.328;2022-09-28T09:24:49;2.85;;;1.63;;
51272;SDS011;37345;59.828;30.328;2022-09-28T09:27:27;1.52;;;1.30;;
51272;SDS011;37345;59.828;30.328;2022-09-28T09:30:12;3.15;;;1.50;;
51272;SDS011;37345;59.828;30.328;2022-09-28T09:35:26;2.75;;;1.40;;
51272;SDS011;37345;59.828;30.328;2022-09-28T09:48:30;3.30;;;1.60;;
51272;SDS011;37345;59.828;30.328;2022-09-28T09:51:03;2.97;;;1.67;;
51272;SDS011;37345;59.828;30.328;2022-09-28T09:53:39;5.03;;;2.17;;
51272;SDS011;37345;59.828;30.328;2022-09-28T09:56:11;3.00;;;1.80;;
51272;SDS011;37345;59.828;30.328;2022-09-28T09:58:48;2.08;;;1.40;;
51272;SDS011;37345;59.828;30.328;2022-09-28T10:01:17;3.05;;;1.30;;
51272;SDS011;37345;59.828;30.328;2022-09-28T10:03:45;1.07;;;0.97;;
51272;SDS011;37345;59.828;30.328;2022-09-28T10:06:14;1.90;;;1.00;;
51272;SDS011;37345;59.828;30.328;2022-09-28T10:09:03;2.33;;;1.27;;
51272;SDS011;37345;59.828;30.328;2022-09-28T10:11:32;2.63;;;1.30;;
51272;SDS011;37345;59.828;30.328;2022-09-28T10:14:00;1.10;;;0.90;;
51272;SDS011;37345;59.828;30.328;2022-09-28T10:16:27;0.70;;;0.60;;
51272;SDS011;37345;59.828;30.328;2022-09-28T10:18:53;1.47;;;0.70;;
51272;SDS011;37345;59.828;30.328;2022-09-28T10:21:19;0.60;;;0.52;;
51272;SDS011;37345;59.828;30.328;2022-09-28T10:23:47;1.05;;;0.80;;
51272;SDS011;37345;59.828;30.328;2022-09-28T10:26:15;0.90;;;0.80;;
51272;SDS011;37345;59.828;30.328;2022-09-28T10:33:58;2.70;;;1.00;;
51272;SDS011;37345;59.828;30.328;2022-09-28T10:36:24;5.63;;;1.83;;
51272;SDS011;37345;59.828;30.328;2022-09-28T10:38:50;4.53;;;1.90;;
51272;SDS011;37345;59.828;30.328;2022-09-28T10:41:18;3.63;;;1.83;;
51272;SDS011;37345;59.828;30.328;2022-09-28T10:43:51;3.20;;;1.30;;
51272;SDS011;37345;59.828;30.328;2022-09-28T10:46:30;2.37;;;0.90;;
51272;SDS011;37345;59.828;30.328;2022-09-28T10:48:58;1.35;;;0.70;;
51272;SDS011;37345;59.828;30.328;2022-09-28T10:51:38;0.83;;;0.63;;
51272;SDS011;37345;59.828;30.328;2022-09-28T10:54:09;2.47;;;0.90;;
51272;SDS011;37345;59.828;30.328;2022-09-28T10:56:38;1.20;;;0.60;;
51272;SDS011;37345;59.828;30.328;2022-09-28T11:04:23;0.95;;;0.80;;
51272;SDS011;37345;59.828;30.328;2022-09-28T11:06:51;2.15;;;0.70;;
51272;SDS011;37345;59.828;30.328;2022-09-28T11:09:28;0.90;;;0.43;;
51272;SDS011;37345;59.828;30.328;2022-09-28T11:11:56;1.63;;;0.60;;
51272;SDS011;37345;59.828;30.328;2022-09-28T11:14:24;0.80;;;0.50;;
51272;SDS011;37345;59.828;30.328;2022-09-28T11:17:37;2.00;;;1.00;;
51272;SDS011;37345;59.828;30.328;2022-09-28T11:19:37;2.47;;;0.90;;
51272;SDS011;37345;59.828;30.328;2022-09-28T11:22:17;1.40;;;0.70;;
51272;SDS011;37345;59.828;30.328;2022-09-28T11:24:45;1.40;;;0.77;;
51272;SDS011;37345;59.828;30.328;2022-09-28T11:27:31;1.80;;;0.88;;
51272;SDS011;37345;59.828;30.328;2022-09-28T11:29:57;1.88;;;1.10;;
51272;SDS011;37345;59.828;30.328;2022-09-28T11:32:24;1.23;;;0.73;;
51272;SDS011;37345;59.828;30.328;2022-09-28T11:34:51;1.33;;;0.95;;
51272;SDS011;37345;59.828;30.328;2022-09-28T11:45:08;2.53;;;1.00;;
51272;SDS011;37345;59.828;30.328;2022-09-28T11:50:13;1.52;;;0.52;;
51272;SDS011;37345;59.828;30.328;2022-09-28T11:57:59;2.05;;;0.93;;
51272;SDS011;37345;59.828;30.328;2022-09-28T12:00:26;1.50;;;0.90;;
51272;SDS011;37345;59.828;30.328;2022-09-28T12:03:03;2.00;;;0.90;;
51272;SDS011;37345;59.828;30.328;2022-09-28T12:05:40;1.70;;;0.82;;
51272;SDS011;37345;59.828;30.328;2022-09-28T12:11:01;2.15;;;0.90;;
51272;SDS011;37345;59.828;30.328;2022-09-28T12:13:34;1.42;;;0.90;;
51272;SDS011;37345;59.828;30.328;2022-09-28T12:16:03;1.33;;;0.77;;
51272;SDS011;37345;59.828;30.328;2022-09-28T12:18:40;1.67;;;0.97;;
51272;SDS011;37345;59.828;30.328;2022-09-28T12:23:56;3.97;;;1.20;;
51272;SDS011;37345;59.828;30.328;2022-09-28T12:26:31;0.98;;;0.80;;
51272;SDS011;37345;59.828;30.328;2022-09-28T12:29:00;1.15;;;0.98;;
51272;SDS011;37345;59.828;30.328;2022-09-28T12:31:34;1.20;;;0.95;;
51272;SDS011;37345;59.828;30.328;2022-09-28T12:34:02;2.83;;;1.10;;
51272;SDS011;37345;59.828;30.328;2022-09-28T12:39:01;1.40;;;1.10;;
51272;SDS011;37345;59.828;30.328;2022-09-28T12:41:38;1.77;;;1.13;;
51272;SDS011;37345;59.828;30.328;2022-09-28T12:59:39;2.65;;;1.10;;
51272;SDS011;37345;59.828;30.328;2022-09-28T13:20:43;2.25;;;1.27;;
51272;SDS011;37345;59.828;30.328;2022-09-28T13:23:13;2.50;;;1.25;;
51272;SDS011;37345;59.828;30.328;2022-09-28T13:26:00;4.10;;;1.23;;
51272;SDS011;37345;59.828;30.328;2022-09-28T13:28:28;2.13;;;1.25;;
51272;SDS011;37345;59.828;30.328;2022-09-28T13:30:56;1.80;;;1.33;;
51272;SDS011;37345;59.828;30.328;2022-09-28T13:33:33;1.77;;;1.20;;
51272;SDS011;37345;59.828;30.328;2022-09-28T13:36:54;2.17;;;1.60;;
51272;SDS011;37345;59.828;30.328;2022-09-28T13:38:47;1.88;;;1.30;;
51272;SDS011;37345;59.828;30.328;2022-09-28T13:41:14;4.93;;;2.13;;
51272;SDS011;37345;59.828;30.328;2022-09-28T13:44:02;3.80;;;2.15;;
51272;SDS011;37345;59.828;30.328;2022-09-28T13:46:36;5.10;;;2.22;;
51272;SDS011;37345;59.828;30.328;2022-09-28T13:56:45;3.65;;;2.45;;
51272;SDS011;37345;59.828;30.328;2022-09-28T13:59:22;3.65;;;2.47;;
51272;SDS011;37345;59.828;30.328;2022-09-28T14:02:02;3.00;;;2.25;;
51272;SDS011;37345;59.828;30.328;2022-09-28T14:10:16;3.35;;;2.60;;
51272;SDS011;37345;59.828;30.328;2022-09-28T14:12:46;3.72;;;2.60;;
51272;SDS011;37345;59.828;30.328;2022-09-28T14:20:25;3.83;;;2.60;;
51272;SDS011;37345;59.828;30.328;2022-09-28T14:25:32;6.10;;;2.80;;
51272;SDS011;37345;59.828;30.328;2022-09-28T14:27:59;3.17;;;2.60;;
51272;SDS011;37345;59.828;30.328;2022-09-28T14:30:48;3.30;;;2.55;;
51272;SDS011;37345;59.828;30.328;2022-09-28T14:35:42;4.18;;;3.00;;
51272;SDS011;37345;59.828;30.328;2022-09-28T14:38:18;3.30;;;2.60;;
51272;SDS011;37345;59.828;30.328;2022-09-28T14:48:50;3.67;;;2.78;;
51272;SDS011;37345;59.828;30.328;2022-09-28T14:53:55;4.03;;;2.80;;
51272;SDS011;37345;59.828;30.328;2022-09-28T14:56:24;3.37;;;2.67;;
51272;SDS011;37345;59.828;30.328;2022-09-28T14:58:52;3.67;;;2.85;;
51272;SDS011;37345;59.828;30.328;2022-09-28T15:01:20;3.70;;;2.47;;
51272;SDS011;37345;59.828;30.328;2022-09-28T15:03:58;3.05;;;2.65;;
51272;SDS011;37345;59.828;30.328;2022-09-28T15:06:31;2.92;;;2.28;;
51272;SDS011;37345;59.828;30.328;2022-09-28T15:09:24;2.67;;;2.15;;
51272;SDS011;37345;59.828;30.328;2022-09-28T15:11:51;2.80;;;2.33;;
51272;SDS011;37345;59.828;30.328;2022-09-28T15:14:21;3.25;;;1.88;;
51272;SDS011;37345;59.828;30.328;2022-09-28T15:16:48;3.50;;;2.30;;
51272;SDS011;37345;59.828;30.328;2022-09-28T15:21:44;2.90;;;2.30;;
51272;SDS011;37345;59.828;30.328;2022-09-28T15:24:26;3.90;;;2.00;;
51272;SDS011;37345;59.828;30.328;2022-09-28T15:26:52;4.70;;;2.42;;
51272;SDS011;37345;59.828;30.328;2022-09-28T15:29:22;3.47;;;2.40;;
51272;SDS011;37345;59.828;30.328;2022-09-28T15:31:49;2.83;;;2.25;;
51272;SDS011;37345;59.828;30.328;2022-09-28T15:34:32;2.35;;;2.10;;
51272;SDS011;37345;59.828;30.328;2022-09-28T15:37:21;2.70;;;2.15;;
51272;SDS011;37345;59.828;30.328;2022-09-28T15:39:48;3.95;;;1.92;;
51272;SDS011;37345;59.828;30.328;2022-09-28T15:42:15;3.58;;;2.38;;
51272;SDS011;37345;59.828;30.328;2022-09-28T15:44:42;3.50;;;2.88;;
51272;SDS011;37345;59.828;30.328;2022-09-28T15:47:24;3.85;;;2.58;;
51272;SDS011;37345;59.828;30.328;2022-09-28T15:52:38;3.92;;;2.30;;
51272;SDS011;37345;59.828;30.328;2022-09-28T15:55:19;5.05;;;2.80;;
51272;SDS011;37345;59.828;30.328;2022-09-28T15:57:48;3.70;;;2.92;;
51272;SDS011;37345;59.828;30.328;2022-09-28T16:00:22;5.57;;;3.17;;
51272;SDS011;37345;59.828;30.328;2022-09-28T16:03:02;3.42;;;2.67;;
51272;SDS011;37345;59.828;30.328;2022-09-28T16:05:42;3.10;;;2.58;;
51272;SDS011;37345;59.828;30.328;2022-09-28T16:08:17;2.60;;;2.15;;
51272;SDS011;37345;59.828;30.328;2022-09-28T16:13:20;6.47;;;2.83;;
51272;SDS011;37345;59.828;30.328;2022-09-28T16:15:52;5.03;;;2.67;;
51272;SDS011;37345;59.828;30.328;2022-09-28T16:18:22;5.77;;;3.10;;
51272;SDS011;37345;59.828;30.328;2022-09-28T16:20:53;4.17;;;3.20;;
51272;SDS011;37345;59.828;30.328;2022-09-28T16:23:28;5.35;;;3.10;;
51272;SDS011;37345;59.828;30.328;2022-09-28T16:25:59;6.23;;;3.30;;
51272;SDS011;37345;59.828;30.328;2022-09-28T16:31:03;4.15;;;3.03;;
51272;SDS011;37345;59.828;30.328;2022-09-28T16:33:37;4.75;;;2.85;;
51272;SDS011;37345;59.828;30.328;2022-09-28T16:36:04;5.85;;;3.40;;
51272;SDS011;37345;59.828;30.328;2022-09-28T16:38:35;7.90;;;4.15;;
51272;SDS011;37345;59.828;30.328;2022-09-28T16:41:02;7.50;;;4.47;;
51272;SDS011;37345;59.828;30.328;2022-09-28T16:43:29;4.18;;;3.00;;
51272;SDS011;37345;59.828;30.328;2022-09-28T16:46:00;5.30;;;3.97;;
51272;SDS011;37345;59.828;30.328;2022-09-28T16:48:31;5.63;;;2.90;;
51272;SDS011;37345;59.828;30.328;2022-09-28T16:50:57;6.00;;;3.08;;
51272;SDS011;37345;59.828;30.328;2022-09-28T16:53:24;5.03;;;2.90;;
51272;SDS011;37345;59.828;30.328;2022-09-28T16:56:09;3.95;;;3.00;;
51272;SDS011;37345;59.828;30.328;2022-09-28T16:58:35;3.55;;;2.78;;
51272;SDS011;37345;59.828;30.328;2022-09-28T17:01:02;3.65;;;2.80;;
51272;SDS011;37345;59.828;30.328;2022-09-28T17:03:28;3.47;;;2.50;;
51272;SDS011;37345;59.828;30.328;2022-09-28T17:05:54;3.15;;;2.30;;
51272;SDS011;37345;59.828;30.328;2022-09-28T17:08:21;4.10;;;2.33;;
51272;SDS011;37345;59.828;30.328;2022-09-28T17:13:16;2.85;;;2.40;;
51272;SDS011;37345;59.828;30.328;2022-09-28T17:15:43;3.25;;;2.28;;
51272;SDS011;37345;59.828;30.328;2022-09-28T17:18:14;2.65;;;2.30;;
51272;SDS011;37345;59.828;30.328;2022-09-28T17:20:41;3.42;;;2.50;;
51272;SDS011;37345;59.828;30.328;2022-09-28T17:23:08;2.90;;;2.30;;
51272;SDS011;37345;59.828;30.328;2022-09-28T17:25:35;2.50;;;2.10;;
51272;SDS011;37345;59.828;30.328;2022-09-28T17:28:01;2.58;;;2.03;;
51272;SDS011;37345;59.828;30.328;2022-09-28T17:30:27;3.20;;;2.00;;
51272;SDS011;37345;59.828;30.328;2022-09-28T17:32:54;4.03;;;2.20;;
51272;SDS011;37345;59.828;30.328;2022-09-28T17:35:20;2.83;;;2.40;;
51272;SDS011;37345;59.828;30.328;2022-09-28T17:37:49;5.38;;;2.63;;
51272;SDS011;37345;59.828;30.328;2022-09-28T17:40:23;4.47;;;2.70;;
51272;SDS011;37345;59.828;30.328;2022-09-28T17:42:49;3.47;;;2.88;;